Terminal Aerodrome Forecast
Issued by NWS Wichita, KS

Home | Current Version | Previous Version | Graphics & Text | Print | Product List | Glossary On
Versions: 1 2 3 4 5 6 7 8 9 10 11 12 13 14 15 16 17 18 19 20
000
FTUS43 KICT 270520
TAFICT
TAF
KICT 270520Z 2706/2806 16005KT P6SM VCTS BKN070CB
     FM270900 VRB05KT P6SM SCT010 BKN070
     FM271300 36011KT P6SM BKN015
     FM271500 36012KT P6SM BKN025
     FM271800 01012KT P6SM SCT035=

USA.gov is the U.S. government's official web portal to all federal, state and local government web resources and services.